createdAt,value
2022-10-08T00:00:22.877Z,9.70
2022-10-08T00:02:50.031Z,10.50
2022-10-08T00:05:17.118Z,7.88
2022-10-08T00:07:45.498Z,6.10
2022-10-08T00:10:12.674Z,9.93
2022-10-08T00:12:39.926Z,6.63
2022-10-08T00:15:07.347Z,8.38
2022-10-08T00:17:34.650Z,7.90
2022-10-08T00:20:01.787Z,12.75
2022-10-08T00:22:28.961Z,9.98
2022-10-08T00:24:56.185Z,8.48
2022-10-08T00:27:26.456Z,12.93
2022-10-08T00:29:54.003Z,8.73
2022-10-08T00:32:21.168Z,8.68
2022-10-08T00:34:48.523Z,9.75
2022-10-08T00:37:15.758Z,7.22
2022-10-08T00:39:42.889Z,9.32
2022-10-08T00:42:11.909Z,11.07
2022-10-08T00:44:51.589Z,11.23
2022-10-08T00:47:34.012Z,11.48
2022-10-08T00:50:06.889Z,8.55
2022-10-08T00:52:36.038Z,14.65
2022-10-08T00:55:06.754Z,11.38
2022-10-08T00:57:35.051Z,11.82
2022-10-08T01:00:10.465Z,10.32
2022-10-08T01:02:37.704Z,11.35
2022-10-08T01:05:05.283Z,11.07
2022-10-08T01:07:36.098Z,7.85
2022-10-08T01:10:11.621Z,10.98
2022-10-08T01:12:45.749Z,10.52
2022-10-08T01:15:33.269Z,11.77
2022-10-08T01:18:08.791Z,11.95
2022-10-08T01:20:54.708Z,9.27
2022-10-08T01:23:30.877Z,12.35
2022-10-08T01:26:07.199Z,6.68
2022-10-08T01:28:43.139Z,11.45
2022-10-08T01:31:19.157Z,13.48
2022-10-08T01:33:48.557Z,16.10
2022-10-08T01:36:18.017Z,10.70
2022-10-08T01:38:47.208Z,7.88
2022-10-08T01:41:15.966Z,12.35
2022-10-08T01:43:44.846Z,12.52
2022-10-08T01:46:15.331Z,8.88
2022-10-08T01:48:43.162Z,7.60
2022-10-08T01:51:14.687Z,13.93
2022-10-08T01:53:42.770Z,9.93
2022-10-08T01:56:11.287Z,10.20
2022-10-08T01:58:58.647Z,14.00
2022-10-08T02:01:27.747Z,12.88
2022-10-08T02:04:14.095Z,11.15
2022-10-08T02:06:44.444Z,7.30
2022-10-08T02:09:11.770Z,13.65
2022-10-08T02:11:38.938Z,14.27
2022-10-08T02:14:06.606Z,11.57
2022-10-08T02:16:34.311Z,12.43
2022-10-08T02:19:08.297Z,15.80
2022-10-08T02:21:38.225Z,12.48
2022-10-08T02:24:11.637Z,11.38
2022-10-08T02:26:41.781Z,13.73
2022-10-08T02:29:13.656Z,8.63
2022-10-08T02:31:47.008Z,9.68
2022-10-08T02:34:24.879Z,7.85
2022-10-08T02:36:55.901Z,11.38
2022-10-08T02:39:25.381Z,10.43
2022-10-08T02:41:54.071Z,9.60
2022-10-08T02:44:23.952Z,12.15
2022-10-08T02:46:53.538Z,10.40
2022-10-08T02:49:24.535Z,10.48
2022-10-08T02:51:52.969Z,8.00
2022-10-08T02:54:21.382Z,14.07
2022-10-08T02:56:51.803Z,9.77
2022-10-08T02:59:22.723Z,12.98
2022-10-08T03:01:53.341Z,7.68
2022-10-08T03:04:20.460Z,10.10
2022-10-08T03:06:48.925Z,9.65
2022-10-08T03:09:17.612Z,8.40
2022-10-08T03:11:44.805Z,12.57
2022-10-08T03:14:13.825Z,10.80
2022-10-08T03:16:42.034Z,10.45
2022-10-08T03:19:10.765Z,8.57
2022-10-08T03:21:39.467Z,9.05
2022-10-08T03:24:10.572Z,11.13
2022-10-08T03:26:38.084Z,14.35
2022-10-08T03:29:05.535Z,8.48
2022-10-08T03:31:32.729Z,13.38
2022-10-08T03:34:00.194Z,13.70
2022-10-08T03:36:27.509Z,16.70
2022-10-08T03:38:54.622Z,18.83
2022-10-08T03:41:21.800Z,8.50
2022-10-08T03:43:48.886Z,15.20
2022-10-08T03:46:16.428Z,13.27
2022-10-08T03:48:43.869Z,12.10
2022-10-08T03:51:15.338Z,13.02
2022-10-08T03:53:43.373Z,8.07
2022-10-08T03:56:12.739Z,12.95
2022-10-08T03:58:39.958Z,9.65
2022-10-08T04:01:08.771Z,9.90
2022-10-08T04:03:36.030Z,10.50
2022-10-08T04:06:03.648Z,7.65
2022-10-08T04:08:30.867Z,9.13
2022-10-08T04:10:58.076Z,8.82
2022-10-08T04:13:25.211Z,13.02
2022-10-08T04:15:52.463Z,15.82
2022-10-08T04:18:19.720Z,15.85
2022-10-08T04:20:46.959Z,12.40
2022-10-08T04:23:14.101Z,12.70
2022-10-08T04:25:49.385Z,14.52
2022-10-08T04:28:16.579Z,13.52
2022-10-08T04:30:43.832Z,13.82
2022-10-08T04:33:11.074Z,14.38
2022-10-08T04:35:38.737Z,14.32
2022-10-08T04:38:05.855Z,16.58
2022-10-08T04:40:33.014Z,16.88
2022-10-08T04:43:00.128Z,14.10
2022-10-08T04:45:27.300Z,14.07
2022-10-08T04:47:54.984Z,14.80
2022-10-08T04:50:22.090Z,15.68
2022-10-08T04:52:49.514Z,12.18
2022-10-08T04:55:16.908Z,12.18
2022-10-08T04:57:46.088Z,11.95
2022-10-08T05:00:18.216Z,12.30
2022-10-08T05:02:46.356Z,13.13
2022-10-08T05:05:14.774Z,10.60
2022-10-08T05:07:41.887Z,13.73
2022-10-08T05:10:09.223Z,9.38
2022-10-08T05:12:36.451Z,10.90
2022-10-08T05:15:03.661Z,13.27
2022-10-08T05:17:30.741Z,9.05
2022-10-08T05:19:57.849Z,9.32
2022-10-08T05:22:25.017Z,10.65
2022-10-08T05:24:52.110Z,8.10
2022-10-08T05:27:19.232Z,12.82
2022-10-08T05:29:46.370Z,15.88
2022-10-08T05:32:13.486Z,13.02
2022-10-08T05:34:40.598Z,8.77
2022-10-08T05:37:07.717Z,12.82
2022-10-08T05:39:34.859Z,14.18
2022-10-08T05:42:01.955Z,12.18
2022-10-08T05:44:29.060Z,14.23
2022-10-08T05:46:56.190Z,12.18
2022-10-08T05:49:24.036Z,13.10
2022-10-08T05:51:51.524Z,13.68
2022-10-08T05:54:19.125Z,15.38
2022-10-08T05:56:46.307Z,12.88
2022-10-08T05:59:17.406Z,19.23
2022-10-08T06:01:44.499Z,27.05
2022-10-08T06:04:12.200Z,30.55
2022-10-08T06:06:40.139Z,20.88
2022-10-08T06:09:07.979Z,21.85
2022-10-08T06:11:36.516Z,17.40
2022-10-08T06:14:03.946Z,16.65
2022-10-08T06:16:31.304Z,19.88
2022-10-08T06:18:58.854Z,13.40
2022-10-08T06:21:26.967Z,12.00
2022-10-08T06:23:55.974Z,13.20
2022-10-08T06:26:26.015Z,16.00
2022-10-08T06:28:53.402Z,11.48
2022-10-08T06:31:20.869Z,9.45
2022-10-08T06:33:48.157Z,13.23
2022-10-08T06:36:16.702Z,9.63
2022-10-08T06:38:44.157Z,8.70
2022-10-08T06:41:11.338Z,9.90
2022-10-08T06:43:38.552Z,8.55
2022-10-08T06:46:06.828Z,10.50
2022-10-08T06:48:34.123Z,15.25
2022-10-08T06:51:01.994Z,12.98
2022-10-08T06:53:29.404Z,16.08
2022-10-08T06:56:00.023Z,11.68
2022-10-08T06:58:27.341Z,14.60
2022-10-08T07:01:09.836Z,9.77
2022-10-08T07:03:37.419Z,8.23
2022-10-08T07:06:05.806Z,8.75
2022-10-08T07:08:33.001Z,7.97
2022-10-08T07:11:06.670Z,8.82
2022-10-08T07:16:11.784Z,8.10
2022-10-08T07:18:40.997Z,7.90
2022-10-08T07:21:08.847Z,7.82
2022-10-08T07:23:36.537Z,11.40
2022-10-08T07:26:09.994Z,15.98
2022-10-08T07:28:38.358Z,10.77
2022-10-08T07:31:06.454Z,15.18
2022-10-08T07:33:33.843Z,11.95
2022-10-08T07:36:08.119Z,13.38
2022-10-08T07:38:35.315Z,20.35
2022-10-08T07:41:02.491Z,14.43
2022-10-08T07:43:29.680Z,13.63
2022-10-08T07:45:57.087Z,14.27
2022-10-08T07:48:24.341Z,14.70
2022-10-08T07:50:51.462Z,8.50
2022-10-08T07:53:18.664Z,8.95
2022-10-08T07:55:45.782Z,6.97
2022-10-08T07:58:13.501Z,15.07
2022-10-08T08:00:41.215Z,10.55
2022-10-08T08:03:11.714Z,7.60
2022-10-08T08:05:38.803Z,6.82
2022-10-08T08:08:06.125Z,8.50
2022-10-08T08:10:33.251Z,13.88
2022-10-08T08:13:00.458Z,8.70
2022-10-08T08:15:27.605Z,16.00
2022-10-08T08:17:54.707Z,15.07
2022-10-08T08:20:21.892Z,18.67
2022-10-08T08:22:49.641Z,5.75
2022-10-08T08:25:17.071Z,16.02
2022-10-08T08:27:44.208Z,5.53
2022-10-08T08:30:11.701Z,5.10
2022-10-08T08:32:40.885Z,3.60
2022-10-08T08:35:08.404Z,9.02
2022-10-08T08:37:35.526Z,11.70
2022-10-08T08:40:02.788Z,8.40
2022-10-08T08:42:42.192Z,4.63
2022-10-08T08:45:45.836Z,51.33
2022-10-08T08:48:23.030Z,6.30
2022-10-08T08:50:51.257Z,3.50
2022-10-08T08:53:19.074Z,4.13
2022-10-08T08:55:47.681Z,5.32
2022-10-08T08:58:25.782Z,5.40
2022-10-08T09:00:57.222Z,4.07
2022-10-08T09:03:30.644Z,10.55
2022-10-08T09:05:59.283Z,5.50
2022-10-08T09:08:41.229Z,1.90
2022-10-08T09:11:13.317Z,3.22
2022-10-08T09:13:46.513Z,6.53
2022-10-08T09:16:14.660Z,9.52
2022-10-08T09:18:43.596Z,5.10
2022-10-08T09:21:10.794Z,5.57
2022-10-08T09:23:38.041Z,3.47
2022-10-08T09:26:16.495Z,8.77
2022-10-08T09:28:44.671Z,6.10
2022-10-08T09:31:32.516Z,6.55
2022-10-08T09:34:01.886Z,5.93
2022-10-08T09:36:36.865Z,1.88
2022-10-08T09:39:06.225Z,6.78
2022-10-08T09:41:33.556Z,8.57
2022-10-08T09:44:20.515Z,2.78
2022-10-08T09:46:48.502Z,2.88
2022-10-08T09:49:32.461Z,4.68
2022-10-08T09:52:08.101Z,3.70
2022-10-08T09:54:36.904Z,5.22
2022-10-08T09:57:04.648Z,1.60
2022-10-08T09:59:41.389Z,2.45
2022-10-08T10:02:29.932Z,3.15
2022-10-08T10:04:57.683Z,3.22
2022-10-08T10:07:25.148Z,1.35
2022-10-08T10:09:57.197Z,3.28
2022-10-08T10:12:35.470Z,3.28
2022-10-08T10:15:05.256Z,1.98
2022-10-08T10:17:53.361Z,4.75
2022-10-08T10:20:27.105Z,3.58
2022-10-08T10:22:54.192Z,4.63
2022-10-08T10:25:24.265Z,5.70
2022-10-08T10:27:53.952Z,6.70
2022-10-08T10:30:22.642Z,2.33
2022-10-08T10:32:50.007Z,2.55
2022-10-08T10:35:30.424Z,2.25
2022-10-08T10:38:00.845Z,1.70
2022-10-08T10:40:30.559Z,3.20
2022-10-08T10:43:16.257Z,1.55
2022-10-08T10:45:49.039Z,2.05
2022-10-08T10:48:16.177Z,2.03
2022-10-08T10:50:46.304Z,1.80
2022-10-08T10:53:20.285Z,5.97
2022-10-08T10:55:56.645Z,4.15
2022-10-08T10:58:41.345Z,1.92
2022-10-08T11:01:22.440Z,1.85
2022-10-08T11:04:07.964Z,2.58
2022-10-08T11:06:57.035Z,6.07
2022-10-08T11:09:39.177Z,6.50
2022-10-08T11:12:20.070Z,3.60
2022-10-08T11:14:52.932Z,1.73
2022-10-08T11:17:49.675Z,3.70
2022-10-08T11:20:29.024Z,2.20
2022-10-08T11:23:02.377Z,3.95
2022-10-08T11:25:29.494Z,1.83
2022-10-08T11:28:02.828Z,2.60
2022-10-08T11:30:36.051Z,2.65
2022-10-08T11:33:04.147Z,4.50
2022-10-08T11:35:39.345Z,2.63
2022-10-08T11:38:32.795Z,2.92
2022-10-08T11:41:07.147Z,1.00
2022-10-08T11:43:46.936Z,1.30
2022-10-08T11:46:22.786Z,1.27
2022-10-08T11:48:50.749Z,3.60
2022-10-08T11:51:21.041Z,1.33
2022-10-08T11:54:07.107Z,2.83
2022-10-08T11:56:36.777Z,2.60
2022-10-08T11:59:27.308Z,1.58
2022-10-08T12:02:01.622Z,2.58
2022-10-08T12:04:39.761Z,1.95
2022-10-08T12:07:07.402Z,3.70
2022-10-08T12:09:57.664Z,2.72
2022-10-08T12:12:24.928Z,2.88
2022-10-08T12:14:54.042Z,2.20
2022-10-08T12:17:21.170Z,1.50
2022-10-08T12:20:03.542Z,10.50
2022-10-08T12:22:34.083Z,7.20
2022-10-08T12:25:04.776Z,2.30
2022-10-08T12:27:38.147Z,4.25
2022-10-08T12:30:12.107Z,4.25
2022-10-08T12:32:42.317Z,4.07
2022-10-08T12:35:24.549Z,1.98
2022-10-08T12:37:57.769Z,2.53
2022-10-08T12:40:41.650Z,2.60
2022-10-08T12:45:42.682Z,4.68
2022-10-08T12:48:42.025Z,1.42
2022-10-08T12:51:20.384Z,3.22
2022-10-08T12:53:48.164Z,4.43
2022-10-08T12:56:16.961Z,5.05
2022-10-08T12:58:46.317Z,1.92
2022-10-08T13:01:14.904Z,6.00
2022-10-08T13:03:44.832Z,9.23
2022-10-08T13:06:28.379Z,6.28
2022-10-08T13:08:59.095Z,4.72
2022-10-08T13:11:28.161Z,2.85
2022-10-08T13:13:55.330Z,2.13
2022-10-08T13:16:23.665Z,1.67
2022-10-08T13:18:57.375Z,2.88
2022-10-08T13:23:51.814Z,0.93
2022-10-08T13:26:39.244Z,3.15
2022-10-08T13:29:26.279Z,3.22
2022-10-08T13:31:57.464Z,3.65
2022-10-08T13:34:26.750Z,4.53
2022-10-08T13:36:58.600Z,3.42
2022-10-08T13:39:27.793Z,7.85
2022-10-08T13:42:05.268Z,10.63
2022-10-08T13:44:33.408Z,3.22
2022-10-08T13:47:03.726Z,2.47
2022-10-08T13:49:33.157Z,6.38
2022-10-08T13:52:01.977Z,4.50
2022-10-08T13:54:30.424Z,4.57
2022-10-08T13:56:59.160Z,3.95
2022-10-08T13:59:30.400Z,5.45
2022-10-08T14:01:58.067Z,2.38
2022-10-08T14:04:25.437Z,4.03
2022-10-08T14:06:54.534Z,3.20
2022-10-08T14:09:23.349Z,4.30
2022-10-08T14:11:55.973Z,3.08
2022-10-08T14:14:26.636Z,2.75
2022-10-08T14:16:54.416Z,2.58
2022-10-08T14:19:21.787Z,4.50
2022-10-08T14:21:50.320Z,1.67
2022-10-08T14:24:17.665Z,3.13
2022-10-08T14:26:44.987Z,2.28
2022-10-08T14:29:12.278Z,1.48
2022-10-08T14:31:39.618Z,4.28
2022-10-08T14:34:07.491Z,5.63
2022-10-08T14:36:39.141Z,3.20
2022-10-08T14:39:06.428Z,3.88
2022-10-08T14:41:33.914Z,2.33
2022-10-08T14:44:01.345Z,3.33
2022-10-08T14:46:28.558Z,4.03
2022-10-08T14:48:55.706Z,3.45
2022-10-08T14:51:23.025Z,3.50
2022-10-08T14:53:50.587Z,3.08
2022-10-08T14:56:17.895Z,2.92
2022-10-08T14:58:45.285Z,4.90
2022-10-08T15:01:12.543Z,4.25
2022-10-08T15:03:39.708Z,4.55
2022-10-08T15:06:07.212Z,7.38
2022-10-08T15:08:34.650Z,3.90
2022-10-08T15:11:03.283Z,4.68
2022-10-08T15:13:30.703Z,3.25
2022-10-08T15:15:58.158Z,2.90
2022-10-08T15:18:25.584Z,4.38
2022-10-08T15:20:56.697Z,4.57
2022-10-08T15:23:24.896Z,1.80
2022-10-08T15:25:56.113Z,2.88
2022-10-08T15:28:23.441Z,2.88
2022-10-08T15:30:50.780Z,1.83
2022-10-08T15:33:18.035Z,2.33
2022-10-08T15:35:45.345Z,1.52
2022-10-08T15:38:12.617Z,6.13
2022-10-08T15:40:39.735Z,6.00
2022-10-08T15:43:06.849Z,5.40
2022-10-08T15:45:41.926Z,4.38
2022-10-08T15:48:12.937Z,4.50
2022-10-08T15:50:40.362Z,5.35
2022-10-08T15:53:07.862Z,4.72
2022-10-08T15:55:35.192Z,4.72
2022-10-08T15:58:02.472Z,7.18
2022-10-08T16:00:29.595Z,6.75
2022-10-08T16:02:56.983Z,5.82
2022-10-08T16:05:24.209Z,8.63
2022-10-08T16:07:51.349Z,6.88
2022-10-08T16:10:18.501Z,6.10
2022-10-08T16:12:45.870Z,6.28
2022-10-08T16:15:13.267Z,6.97
2022-10-08T16:17:40.371Z,5.10
2022-10-08T16:20:07.715Z,4.90
2022-10-08T16:22:34.881Z,8.23
2022-10-08T16:25:02.012Z,8.88
2022-10-08T16:27:29.268Z,12.48
2022-10-08T16:29:56.403Z,6.70
2022-10-08T16:32:23.626Z,6.70
2022-10-08T16:34:53.480Z,10.80
2022-10-08T16:37:20.970Z,10.38
2022-10-08T16:39:48.232Z,8.05
2022-10-08T16:42:15.316Z,9.57
2022-10-08T16:44:42.410Z,12.40
2022-10-08T16:47:09.691Z,11.70
2022-10-08T16:49:36.827Z,12.25
2022-10-08T16:52:05.465Z,11.80
2022-10-08T16:54:33.267Z,10.50
2022-10-08T16:57:00.767Z,10.10
2022-10-08T16:59:28.499Z,24.38
2022-10-08T17:01:57.169Z,16.17
2022-10-08T17:04:25.388Z,16.90
2022-10-08T17:06:52.802Z,19.50
2022-10-08T17:09:20.825Z,17.05
2022-10-08T17:11:48.000Z,18.17
2022-10-08T17:14:15.409Z,14.75
2022-10-08T17:16:43.594Z,13.65
2022-10-08T17:19:11.125Z,13.43
2022-10-08T17:21:38.409Z,11.45
2022-10-08T17:24:05.678Z,8.25
2022-10-08T17:26:32.914Z,7.80
2022-10-08T17:29:03.548Z,7.55
2022-10-08T17:31:31.794Z,8.63
2022-10-08T17:33:59.807Z,12.00
2022-10-08T17:36:28.648Z,5.82
2022-10-08T17:38:57.126Z,7.53
2022-10-08T17:41:25.617Z,8.68
2022-10-08T17:43:53.578Z,8.32
2022-10-08T17:46:22.094Z,9.10
2022-10-08T17:48:49.610Z,10.05
2022-10-08T17:51:17.729Z,8.23
2022-10-08T17:53:45.337Z,7.88
2022-10-08T17:56:13.667Z,9.68
2022-10-08T17:58:40.799Z,7.45
2022-10-08T18:01:08.876Z,6.93
2022-10-08T18:03:36.836Z,7.07
2022-10-08T18:06:04.492Z,8.65
2022-10-08T18:08:32.110Z,8.40
2022-10-08T18:11:01.902Z,8.02
2022-10-08T18:13:29.229Z,11.07
2022-10-08T18:15:56.541Z,9.38
2022-10-08T18:18:23.703Z,10.85
2022-10-08T18:20:57.598Z,8.43
2022-10-08T18:23:24.936Z,9.98
2022-10-08T18:25:54.068Z,12.45
2022-10-08T18:28:22.259Z,13.38
2022-10-08T18:30:49.491Z,8.40
2022-10-08T18:33:16.639Z,9.48
2022-10-08T18:35:43.773Z,11.63
2022-10-08T18:38:10.902Z,13.77
2022-10-08T18:40:38.125Z,11.27
2022-10-08T18:43:05.430Z,11.48
2022-10-08T18:45:36.181Z,12.00
2022-10-08T18:48:05.317Z,12.27
2022-10-08T18:50:33.548Z,10.77
2022-10-08T18:53:00.643Z,16.38
2022-10-08T18:55:27.893Z,12.52
2022-10-08T18:57:55.069Z,12.75
2022-10-08T19:00:22.169Z,17.50
2022-10-08T19:02:49.729Z,15.15
2022-10-08T19:05:17.308Z,13.68
2022-10-08T19:07:44.385Z,14.60
2022-10-08T19:10:11.541Z,15.65
2022-10-08T19:12:38.716Z,16.92
2022-10-08T19:15:06.201Z,13.43
2022-10-08T19:17:33.355Z,12.18
2022-10-08T19:20:00.445Z,14.30
2022-10-08T19:22:27.556Z,9.05
2022-10-08T19:24:54.660Z,8.35
2022-10-08T19:27:21.817Z,16.20
2022-10-08T19:29:48.917Z,15.85
2022-10-08T19:32:16.074Z,17.30
2022-10-08T19:34:43.190Z,12.93
2022-10-08T19:37:10.350Z,13.25
2022-10-08T19:39:40.462Z,16.27
2022-10-08T19:44:38.286Z,14.45
2022-10-08T19:47:05.660Z,14.48
2022-10-08T19:49:32.774Z,17.92
2022-10-08T19:51:59.845Z,12.70
2022-10-08T19:54:27.127Z,10.82
2022-10-08T19:56:55.894Z,11.20
2022-10-08T19:59:22.991Z,10.95
2022-10-08T20:01:50.144Z,15.88
2022-10-08T20:04:17.426Z,17.67
2022-10-08T20:06:44.663Z,15.55
2022-10-08T20:09:12.829Z,11.77
2022-10-08T20:11:40.597Z,13.52
2022-10-08T20:14:07.769Z,11.88
2022-10-08T20:16:36.698Z,11.68
2022-10-08T20:19:06.411Z,16.00
2022-10-08T20:21:35.748Z,13.68
2022-10-08T20:24:03.395Z,11.00
2022-10-08T20:26:31.594Z,14.02
2022-10-08T20:28:59.786Z,9.05
2022-10-08T20:31:28.474Z,8.88
2022-10-08T20:33:57.357Z,10.27
2022-10-08T20:36:24.898Z,14.73
2022-10-08T20:38:52.251Z,14.65
2022-10-08T20:41:19.788Z,14.73
2022-10-08T20:43:47.225Z,11.82
2022-10-08T20:46:14.869Z,14.15
2022-10-08T20:48:42.927Z,15.95
2022-10-08T20:51:14.674Z,16.55
2022-10-08T20:53:46.793Z,14.45
2022-10-08T20:56:14.686Z,14.75
2022-10-08T20:58:42.075Z,11.48
2022-10-08T21:01:19.957Z,11.80
2022-10-08T21:03:50.516Z,17.77
2022-10-08T21:06:19.173Z,9.45
2022-10-08T21:08:49.893Z,12.40
2022-10-08T21:11:18.276Z,12.32
2022-10-08T21:13:45.617Z,12.52
2022-10-08T21:16:18.037Z,14.68
2022-10-08T21:18:45.518Z,13.88
2022-10-08T21:21:14.253Z,10.25
2022-10-08T21:23:42.092Z,17.52
2022-10-08T21:26:23.032Z,12.05
2022-10-08T21:28:52.061Z,14.68
2022-10-08T21:31:20.010Z,11.52
2022-10-08T21:33:48.631Z,9.57
2022-10-08T21:36:23.477Z,10.85
2022-10-08T21:38:50.794Z,9.90
2022-10-08T21:41:18.529Z,9.32
2022-10-08T21:43:45.692Z,17.08
2022-10-08T21:46:14.521Z,10.02
2022-10-08T21:48:42.050Z,16.52
2022-10-08T21:51:10.568Z,9.90
2022-10-08T21:53:38.885Z,11.40
2022-10-08T21:56:07.565Z,9.80
2022-10-08T21:58:42.391Z,12.13
2022-10-08T22:01:19.259Z,12.30
2022-10-08T22:03:46.532Z,14.05
2022-10-08T22:06:13.665Z,8.35
2022-10-08T22:08:40.769Z,10.70
2022-10-08T22:11:08.207Z,12.70
2022-10-08T22:13:35.430Z,11.48
2022-10-08T22:16:04.926Z,9.48
2022-10-08T22:18:33.665Z,10.60
2022-10-08T22:21:05.072Z,13.80
2022-10-08T22:23:32.670Z,14.43
2022-10-08T22:26:01.495Z,13.60
2022-10-08T22:28:28.983Z,11.98
2022-10-08T22:30:58.733Z,11.02
2022-10-08T22:33:25.901Z,9.80
2022-10-08T22:35:53.002Z,10.88
2022-10-08T22:38:20.141Z,10.35
2022-10-08T22:40:47.247Z,8.77
2022-10-08T22:43:14.377Z,11.25
2022-10-08T22:45:41.634Z,12.85
2022-10-08T22:48:08.894Z,12.77
2022-10-08T22:50:36.313Z,10.20
2022-10-08T22:53:03.450Z,10.02
2022-10-08T22:55:31.113Z,11.20
2022-10-08T22:57:58.249Z,11.48
2022-10-08T23:00:25.629Z,10.57
2022-10-08T23:02:53.098Z,8.68
2022-10-08T23:05:20.297Z,8.35
2022-10-08T23:07:47.425Z,12.63
2022-10-08T23:10:14.587Z,9.80
2022-10-08T23:12:41.699Z,8.23
2022-10-08T23:15:09.176Z,9.98
2022-10-08T23:17:38.931Z,9.05
2022-10-08T23:20:06.535Z,11.43
2022-10-08T23:22:33.671Z,11.93
2022-10-08T23:25:00.846Z,9.57
2022-10-08T23:27:27.977Z,8.45
2022-10-08T23:29:56.252Z,10.90
2022-10-08T23:32:23.353Z,9.63
2022-10-08T23:34:50.490Z,7.80
2022-10-08T23:37:17.744Z,6.75
2022-10-08T23:39:44.938Z,7.85
2022-10-08T23:42:12.016Z,10.65
2022-10-08T23:44:39.181Z,8.60
2022-10-08T23:47:06.313Z,14.65
2022-10-08T23:49:33.506Z,7.65
2022-10-08T23:52:00.584Z,12.63
2022-10-08T23:54:27.847Z,9.80
2022-10-08T23:57:04.477Z,9.30
2022-10-08T23:59:31.544Z,13.48
